Allyn, WA

5:45 PM PST on February 26, 2015 (GMT -0800)
Happy Hollow Estates | Change Station
CLOSE
Current Station
Personal Weather Station
Location: Belfair, WA
Elevation: 203 ft
Nearby Weather Stations

Elev 203 ft 47.38 °N, 122.92 °W | Updated 13 seconds ago

Overcast
Overcast
50.2 °F
Feels Like 50.2 °F
N
3.1
Wind Variable Wind from West
Gusts 3.8 mph

Today
High -- | Low -- °F
--% Chance of Precip.
Yesterday
High -- | Low -- °F
Precip. -- in
6:57 AM 5:51 PM
Waxing Gibbous, 64% visible
Pressure 29.99 in
Visibility 10.0 miles
Clouds Overcast 1900 ft
Dew Point 46 °F
Humidity 85%
Rainfall 0.00 in
Snow Depth Not available.
UV 0 out of 12
Pollen 3.20 out of 12
Air Quality Not available.
Flu Activity Not available.
METAR KPWT 270135Z AUTO 00000KT 10SM OVC019 10/08 A2999 RMK AO1

More Conditions Fewer Conditions

Pressure 29.99 in
Visibility 10.0 miles
Clouds Overcast 1900 ft
Dew Point 46 °F
Humidity 85%
Rainfall 0.00 in
Snow Depth Not available.
UV 0 out of 12
Pollen 3.20 out of 12
Air Quality Not available.
Flu Activity Not available.
METAR KPWT 270135Z AUTO 00000KT 10SM OVC019 10/08 A2999 RMK AO1

More Conditions Fewer Conditions

10-Day Weather Forecast

Almanac

Astronomy

Feb. 26, 2015 Rise Set
Actual Time
Civil Twilight
Nautical Twilight
Astronomical Twilight
Moon
Length of Visible Light
Length of Day
Tomorrow will be .
, % of the Moon is Illuminated

Today's Extremes

State Highs State Lows

Community

WunderPhotos

Upload Photos

1,800,553 photos uploaded!

WunderBlogs® & News

Nearby

Air Quality

  Air Quality AQ Index Pollutant
Not available.

Snow Depth

Station Depth Elevation

Earthquake Activity

City Distance Mag. Time & Date
Minimum magnitude displayed is 2.5.

Coastal Water Temperatures

Place Temperature

Nearby Weather Stations